createdAt,value
2024-05-09T07:11:25.280Z,72.67
2024-05-09T07:13:33.144Z,73.22
2024-05-09T07:14:36.144Z,72.65
2024-05-09T07:15:39.970Z,72.36
2024-05-09T07:16:41.580Z,72.51
2024-05-09T07:17:43.341Z,73.03
2024-05-09T07:18:45.312Z,72.16
2024-05-09T07:19:47.050Z,71.47
2024-05-09T07:20:50.111Z,70.07
2024-05-09T07:21:52.224Z,70.77
2024-05-09T07:22:53.783Z,69.73
2024-05-09T07:23:55.400Z,69.24
2024-05-09T07:24:56.983Z,68.63
2024-05-09T07:25:58.721Z,67.96
2024-05-09T07:27:00.284Z,67.88
2024-05-09T07:28:01.863Z,67.28
2024-05-09T07:29:03.398Z,67.38
2024-05-09T07:30:07.143Z,67.35
2024-05-09T07:31:09.557Z,65.77
2024-05-09T07:32:11.177Z,65.17
2024-05-09T07:33:17.887Z,65.68
2024-05-09T07:34:19.905Z,65.77
2024-05-09T07:35:22.544Z,66.35
2024-05-09T07:36:24.374Z,66.14
2024-05-09T07:37:26.005Z,66.52
2024-05-09T07:38:27.645Z,65.77
2024-05-09T07:39:29.466Z,66.45
2024-05-09T07:40:35.993Z,66.02
2024-05-09T07:41:38.639Z,65.23
2024-05-09T07:42:40.316Z,64.42
2024-05-09T07:43:41.847Z,63.29
2024-05-09T07:44:43.380Z,63.66
2024-05-09T07:45:52.232Z,63.66
2024-05-09T07:54:28.703Z,63.38
2024-05-09T07:55:30.694Z,63.87
2024-05-09T07:58:34.125Z,63.83
2024-05-09T07:59:37.809Z,63.88
2024-05-09T08:02:39.287Z,63.01
2024-05-09T08:03:41.092Z,63.03
2024-05-09T08:06:27.407Z,61.58
2024-05-09T08:07:29.381Z,60.82
2024-05-09T08:10:15.320Z,60.58
2024-05-09T08:13:08.773Z,62.70
2024-05-09T08:15:59.564Z,61.47
2024-05-09T08:17:01.175Z,61.67
2024-05-09T08:19:40.708Z,61.96
2024-05-09T08:20:42.909Z,62.24
2024-05-09T08:23:19.461Z,60.77
2024-05-09T08:24:20.967Z,60.59
2024-05-09T08:26:57.596Z,59.32
2024-05-09T08:29:44.670Z,60.24
2024-05-09T08:32:32.289Z,59.82
2024-05-09T08:35:17.341Z,59.79
2024-05-09T08:37:58.795Z,58.42
2024-05-09T08:40:41.743Z,61.08
2024-05-09T08:41:48.799Z,60.80
2024-05-09T08:44:14.936Z,61.52
2024-05-09T08:45:17.639Z,60.76
2024-05-09T08:47:41.160Z,60.64
2024-05-09T08:48:45.689Z,60.87
2024-05-09T08:51:08.896Z,58.89
2024-05-09T08:52:10.618Z,59.03
2024-05-09T08:54:34.664Z,58.00
2024-05-09T08:55:40.704Z,58.05
2024-05-09T08:58:07.189Z,58.28
2024-05-09T08:59:13.413Z,57.67
2024-05-09T09:01:37.832Z,56.53
2024-05-09T09:02:40.053Z,55.84
2024-05-09T09:05:03.109Z,56.57
2024-05-09T09:06:14.491Z,58.13
2024-05-09T09:08:25.868Z,59.11
2024-05-09T09:09:27.934Z,59.00
2024-05-09T09:11:40.171Z,59.61
2024-05-09T09:13:49.689Z,58.21
2024-05-09T09:15:59.294Z,57.72
2024-05-09T09:17:11.611Z,58.14
2024-05-09T09:19:26.585Z,57.08
2024-05-09T09:20:35.661Z,57.12
2024-05-09T09:22:49.967Z,57.38
2024-05-09T09:23:51.522Z,57.33
2024-05-09T09:26:00.326Z,55.24
2024-05-09T09:27:01.934Z,55.41
2024-05-09T09:29:08.171Z,55.27
2024-05-09T09:30:22.921Z,55.30
2024-05-09T09:31:31.471Z,55.32
2024-05-09T09:35:01.234Z,54.39
2024-05-09T09:38:36.811Z,56.99
2024-05-09T09:39:39.978Z,56.14
2024-05-09T09:41:47.747Z,53.61
2024-05-09T09:42:50.168Z,53.55
2024-05-09T09:43:53.547Z,53.77
2024-05-09T09:45:04.329Z,53.21
2024-05-09T09:46:11.775Z,53.63
2024-05-09T09:47:16.345Z,55.47
2024-05-09T09:48:20.016Z,57.11
2024-05-09T09:49:23.973Z,56.17
2024-05-09T09:50:33.331Z,55.80
2024-05-09T09:51:36.944Z,56.81
2024-05-09T09:52:38.872Z,56.50
2024-05-09T09:53:42.478Z,56.75
2024-05-09T09:54:45.093Z,56.71
2024-05-09T09:56:52.343Z,57.94
2024-05-09T09:57:56.178Z,56.71
2024-05-09T09:59:00.070Z,57.11
2024-05-09T10:00:01.727Z,56.74
2024-05-09T10:01:03.381Z,56.05
2024-05-09T10:02:05.447Z,55.01
2024-05-09T10:03:07.219Z,55.07
2024-05-09T10:04:09.768Z,55.09
2024-05-09T10:05:11.769Z,53.75
2024-05-09T10:06:14.144Z,54.40
2024-05-09T10:07:18.504Z,54.61
2024-05-09T10:08:23.795Z,55.04
2024-05-09T10:09:25.952Z,55.70
2024-05-09T10:10:32.370Z,54.67
2024-05-09T10:11:39.558Z,54.55
2024-05-09T10:13:03.206Z,55.03
2024-05-09T10:14:07.355Z,55.47
2024-05-09T10:15:09.794Z,53.67
2024-05-09T10:16:12.055Z,54.07
2024-05-09T10:17:14.111Z,53.64
2024-05-09T10:18:15.993Z,52.91
2024-05-09T10:19:27.972Z,51.54
2024-05-09T10:20:40.010Z,51.81
2024-05-09T10:21:46.522Z,53.08
2024-05-09T10:22:50.378Z,53.07
2024-05-09T10:24:05.147Z,53.36
2024-05-09T10:25:07.484Z,53.83
2024-05-09T10:26:09.079Z,54.83
2024-05-09T10:27:10.608Z,56.36
2024-05-09T10:28:12.519Z,55.39
2024-05-09T10:29:16.041Z,55.35
2024-05-09T10:30:29.724Z,56.40
2024-05-09T10:31:39.291Z,55.65
2024-05-09T10:32:41.087Z,55.03
2024-05-09T10:33:48.748Z,55.21
2024-05-09T10:35:15.090Z,53.62
2024-05-09T10:36:21.412Z,53.32
2024-05-09T10:37:23.176Z,52.79
2024-05-09T10:38:24.947Z,52.47
2024-05-09T10:39:34.581Z,53.00
2024-05-09T10:40:37.764Z,53.78
2024-05-09T10:41:39.759Z,55.28
2024-05-09T10:42:41.941Z,54.97
2024-05-09T10:43:43.745Z,54.97
2024-05-09T10:44:45.298Z,55.50
2024-05-09T10:45:46.861Z,54.81
2024-05-09T10:46:50.247Z,53.88
2024-05-09T10:47:52.037Z,52.65
2024-05-09T10:48:53.990Z,52.08
2024-05-09T10:49:56.139Z,50.46
2024-05-09T10:50:57.684Z,49.96
2024-05-09T10:51:59.212Z,49.26
2024-05-09T10:53:02.463Z,47.32
2024-05-09T10:54:03.998Z,46.83
2024-05-09T10:55:06.256Z,47.43
2024-05-09T10:56:07.916Z,50.02
2024-05-09T10:57:09.423Z,50.32
2024-05-09T10:58:18.007Z,50.08
2024-05-09T10:59:19.712Z,49.93
2024-05-09T11:00:27.666Z,50.06
2024-05-09T11:01:35.374Z,50.39
2024-05-09T11:02:37.257Z,51.20
2024-05-09T11:03:40.115Z,52.22
2024-05-09T11:04:42.220Z,51.59
2024-05-09T11:05:44.351Z,52.05
2024-05-09T11:06:46.918Z,53.29
2024-05-09T11:07:48.671Z,53.32
2024-05-09T11:08:51.016Z,54.27
2024-05-09T11:09:53.271Z,54.38
2024-05-09T11:10:56.125Z,53.89
2024-05-09T11:11:58.148Z,52.11
2024-05-09T11:12:59.810Z,54.03
2024-05-09T11:14:12.028Z,53.52
2024-05-09T11:15:14.737Z,52.57
2024-05-09T11:16:21.895Z,53.44
2024-05-09T11:17:23.612Z,52.87
2024-05-09T11:18:30.658Z,51.65
2024-05-09T11:19:38.406Z,49.91
2024-05-09T11:20:40.158Z,51.58
2024-05-09T11:21:41.912Z,53.04
2024-05-09T11:22:43.491Z,53.43
2024-05-09T11:23:45.233Z,52.95
2024-05-09T11:24:47.038Z,53.22
2024-05-09T11:25:52.711Z,53.65
2024-05-09T11:26:54.236Z,53.57
2024-05-09T11:28:01.311Z,52.12
2024-05-09T11:29:02.945Z,53.06
2024-05-09T11:30:07.253Z,53.30
2024-05-09T11:31:10.294Z,52.51
2024-05-09T11:32:13.652Z,53.10
2024-05-09T11:33:16.943Z,52.71
2024-05-09T11:34:18.756Z,52.65
2024-05-09T11:35:20.716Z,52.17
2024-05-09T11:36:22.226Z,50.68
2024-05-09T11:37:23.911Z,49.74
2024-05-09T11:38:25.469Z,49.64
2024-05-09T11:39:27.451Z,49.50
2024-05-09T11:40:34.187Z,47.23
2024-05-09T11:41:36.346Z,47.18
2024-05-09T11:42:37.943Z,48.46
2024-05-09T11:43:39.511Z,48.68
2024-05-09T11:44:41.050Z,48.13
2024-05-09T11:45:42.647Z,46.04
2024-05-09T11:46:44.195Z,46.93
2024-05-09T11:47:46.178Z,46.92
2024-05-09T11:48:48.224Z,47.25
2024-05-09T11:49:49.975Z,48.47
2024-05-09T11:50:51.565Z,48.87
2024-05-09T11:51:53.153Z,49.43
2024-05-09T11:52:54.939Z,48.79
2024-05-09T11:53:56.511Z,49.43
2024-05-09T11:54:58.614Z,47.95
2024-05-09T11:56:00.291Z,46.98
2024-05-09T11:57:01.850Z,46.43
2024-05-09T11:58:04.387Z,46.81
2024-05-09T11:59:05.973Z,46.65
2024-05-09T12:00:11.863Z,46.86
2024-05-09T12:01:13.540Z,45.50
2024-05-09T12:02:15.220Z,45.45
2024-05-09T12:03:16.976Z,45.81
2024-05-09T12:04:18.935Z,44.87
2024-05-09T12:05:20.927Z,43.47
2024-05-09T12:06:22.774Z,43.36
2024-05-09T12:07:24.434Z,44.14
2024-05-09T12:08:26.071Z,43.35
2024-05-09T12:09:27.752Z,44.22
2024-05-09T12:10:33.739Z,43.73
2024-05-09T12:11:37.255Z,43.35
2024-05-09T12:12:38.824Z,44.62
2024-05-09T12:13:40.339Z,46.50
2024-05-09T12:14:42.436Z,46.76
2024-05-09T12:15:44.028Z,47.21
2024-05-09T12:16:45.633Z,48.69
2024-05-09T12:17:50.455Z,48.26
2024-05-09T12:18:52.332Z,47.44
2024-05-09T12:19:53.937Z,47.24
2024-05-09T12:20:55.431Z,46.27
2024-05-09T12:21:57.034Z,46.36
2024-05-09T12:22:58.775Z,45.57
2024-05-09T12:24:00.252Z,44.44
2024-05-09T12:25:04.778Z,42.98
2024-05-09T12:26:06.399Z,42.48
2024-05-09T12:27:07.907Z,43.54
2024-05-09T12:28:09.503Z,45.77
2024-05-09T12:29:11.114Z,44.61
2024-05-09T12:30:20.692Z,42.85
2024-05-09T12:31:29.984Z,42.79
2024-05-09T12:32:31.654Z,42.30
2024-05-09T12:33:33.310Z,42.17
2024-05-09T12:34:34.961Z,42.97
2024-05-09T12:35:36.564Z,45.55
2024-05-09T12:36:38.266Z,44.67
2024-05-09T12:37:39.916Z,44.03
2024-05-09T12:38:41.699Z,44.46
2024-05-09T12:39:43.542Z,44.31
2024-05-09T12:40:45.189Z,44.61
2024-05-09T12:41:46.800Z,44.06
2024-05-09T12:42:49.601Z,43.31
2024-05-09T12:43:51.132Z,42.61
2024-05-09T12:44:52.817Z,41.53
2024-05-09T12:45:54.438Z,41.68
2024-05-09T12:46:55.948Z,41.51
2024-05-09T12:47:57.662Z,40.88
2024-05-09T12:48:59.394Z,40.53
2024-05-09T12:50:01.145Z,43.58
2024-05-09T12:51:02.773Z,42.53
2024-05-09T12:52:04.689Z,42.38
2024-05-09T12:53:06.485Z,41.95
2024-05-09T12:54:08.063Z,41.58
2024-05-09T12:55:11.021Z,40.61
2024-05-09T12:56:12.817Z,41.34
2024-05-09T12:57:14.318Z,42.83
2024-05-09T12:58:17.148Z,43.61
2024-05-09T12:59:19.129Z,45.22
2024-05-09T13:00:27.736Z,46.63
2024-05-09T13:01:33.573Z,45.03
2024-05-09T13:02:35.376Z,43.77
2024-05-09T13:03:37.227Z,44.36
2024-05-09T13:04:38.893Z,43.98
2024-05-09T13:05:44.908Z,41.78
2024-05-09T13:06:46.991Z,42.73
2024-05-09T13:07:48.482Z,42.39
2024-05-09T13:08:50.038Z,40.76
2024-05-09T13:09:51.572Z,41.09
2024-05-09T13:10:53.544Z,42.01
2024-05-09T13:11:55.195Z,41.67
2024-05-09T13:12:56.734Z,40.48
2024-05-09T13:13:58.263Z,40.56
2024-05-09T13:14:59.898Z,40.88
2024-05-09T13:16:01.495Z,41.11
2024-05-09T13:17:03.203Z,42.80
2024-05-09T13:18:05.907Z,43.74
2024-05-09T13:19:08.241Z,43.91
2024-05-09T13:20:18.531Z,43.56
2024-05-09T13:21:24.520Z,43.95
2024-05-09T13:22:26.017Z,42.70
2024-05-09T13:23:27.681Z,42.07
2024-05-09T13:24:29.208Z,42.34
2024-05-09T13:25:31.006Z,43.72
2024-05-09T13:26:32.753Z,45.27
2024-05-09T13:27:34.377Z,46.51
2024-05-09T13:28:35.921Z,48.11
2024-05-09T13:29:39.704Z,46.56
2024-05-09T13:30:42.826Z,44.73
2024-05-09T13:31:44.429Z,44.11
2024-05-09T13:32:45.982Z,42.93
2024-05-09T13:33:47.828Z,41.65
2024-05-09T13:34:49.573Z,43.15
2024-05-09T13:35:51.353Z,46.20
2024-05-09T13:36:53.506Z,45.11
2024-05-09T13:37:55.095Z,44.86
2024-05-09T13:38:57.207Z,43.71
2024-05-09T13:40:00.132Z,42.03
2024-05-09T13:41:01.652Z,41.31
2024-05-09T13:42:03.303Z,42.04
2024-05-09T13:43:05.445Z,42.91
2024-05-09T13:44:07.088Z,43.82
2024-05-09T13:45:08.662Z,43.39
2024-05-09T13:46:10.444Z,43.92
2024-05-09T13:47:12.445Z,43.22
2024-05-09T13:48:14.373Z,43.13
2024-05-09T13:49:17.536Z,44.68
2024-05-09T13:50:28.012Z,45.73
2024-05-09T13:51:35.248Z,46.00
2024-05-09T13:52:36.870Z,47.04
2024-05-09T13:53:38.406Z,47.82
2024-05-09T13:54:39.930Z,46.79
2024-05-09T13:55:41.634Z,46.66
2024-05-09T13:56:43.176Z,45.36
2024-05-09T13:57:44.883Z,44.08
2024-05-09T13:58:46.585Z,44.31
2024-05-09T13:59:48.118Z,45.12
2024-05-09T14:00:49.864Z,44.41
2024-05-09T14:01:52.266Z,43.32
2024-05-09T14:02:54.367Z,42.55
2024-05-09T14:03:56.134Z,41.42
2024-05-09T14:04:58.296Z,40.28
2024-05-09T14:06:00.208Z,40.82
2024-05-09T14:07:01.949Z,41.22
2024-05-09T14:08:03.723Z,40.45
2024-05-09T14:09:05.302Z,42.02
2024-05-09T14:10:16.085Z,42.41
2024-05-09T14:11:24.804Z,42.53
2024-05-09T14:12:26.390Z,41.43
2024-05-09T14:13:27.960Z,40.38
2024-05-09T14:14:29.486Z,42.32
2024-05-09T14:15:30.984Z,43.57
2024-05-09T14:16:33.256Z,42.41
2024-05-09T14:17:35.100Z,41.43
2024-05-09T14:18:36.873Z,42.13
2024-05-09T14:19:38.425Z,41.75
2024-05-09T14:20:39.952Z,41.85
2024-05-09T14:21:41.471Z,42.46
2024-05-09T14:22:42.988Z,41.88
2024-05-09T14:23:44.487Z,41.04
2024-05-09T14:24:46.039Z,39.94
2024-05-09T14:25:51.284Z,41.71
2024-05-09T14:26:53.897Z,41.76
2024-05-09T14:27:59.453Z,41.06
2024-05-09T14:29:01.098Z,40.73
2024-05-09T14:30:04.138Z,41.49
2024-05-09T14:31:07.226Z,40.68
2024-05-09T14:32:08.732Z,41.74
2024-05-09T14:33:11.105Z,42.13
2024-05-09T14:34:12.970Z,42.96
2024-05-09T14:35:15.236Z,43.54
2024-05-09T14:36:16.807Z,43.73
2024-05-09T14:37:18.356Z,44.32
2024-05-09T14:38:19.864Z,45.52
2024-05-09T14:39:21.404Z,45.86
2024-05-09T14:40:35.878Z,46.26
2024-05-09T14:41:42.560Z,46.27
2024-05-09T14:42:44.063Z,45.99
2024-05-09T14:43:45.772Z,45.81
2024-05-09T14:44:47.285Z,44.85
2024-05-09T14:45:48.827Z,44.31
2024-05-09T14:46:50.537Z,43.55
2024-05-09T14:47:52.238Z,42.39
2024-05-09T14:48:53.867Z,42.00
2024-05-09T14:49:55.632Z,41.87
2024-05-09T14:50:57.172Z,41.06
2024-05-09T14:51:58.690Z,40.47
2024-05-09T14:53:00.347Z,40.90
2024-05-09T14:54:01.848Z,41.03
2024-05-09T14:55:03.508Z,40.02
2024-05-09T14:56:05.615Z,41.21
2024-05-09T14:57:07.207Z,40.78
2024-05-09T14:58:10.502Z,41.41
2024-05-09T14:59:12.247Z,41.48
2024-05-09T15:00:21.106Z,41.63
2024-05-09T15:01:28.061Z,42.30
2024-05-09T15:02:29.766Z,41.25
2024-05-09T15:03:31.372Z,41.19
2024-05-09T15:04:33.017Z,41.42
2024-05-09T15:05:34.763Z,41.25
2024-05-09T15:06:38.292Z,40.10
2024-05-09T15:07:43.511Z,40.65
2024-05-09T15:08:45.064Z,43.67
2024-05-09T15:09:47.169Z,43.96
2024-05-09T15:10:51.785Z,41.82
2024-05-09T15:11:53.885Z,41.64
2024-05-09T15:12:55.601Z,40.18
2024-05-09T15:13:57.123Z,40.97
2024-05-09T15:14:58.665Z,40.81
2024-05-09T15:16:00.537Z,39.76
2024-05-09T15:17:02.607Z,39.88
2024-05-09T15:18:05.315Z,40.50
2024-05-09T15:19:08.458Z,40.14
2024-05-09T15:20:16.858Z,42.08
2024-05-09T15:21:19.080Z,44.44
2024-05-09T15:22:20.662Z,43.16
2024-05-09T15:23:22.199Z,41.81
2024-05-09T15:24:23.742Z,43.33
2024-05-09T15:25:25.283Z,44.29
2024-05-09T15:26:26.978Z,43.57
2024-05-09T15:27:28.537Z,44.74
2024-05-09T15:28:30.214Z,44.55
2024-05-09T15:29:32.093Z,44.54
2024-05-09T15:30:34.735Z,42.83
2024-05-09T15:31:36.683Z,41.72
2024-05-09T15:32:38.316Z,41.60
2024-05-09T15:33:41.749Z,40.20
2024-05-09T15:34:43.337Z,43.53
2024-05-09T15:35:46.683Z,43.47
2024-05-09T15:36:51.115Z,42.48
2024-05-09T15:37:52.756Z,42.05
2024-05-09T15:38:55.537Z,42.38
2024-05-09T15:39:57.139Z,42.34
2024-05-09T15:40:59.103Z,41.82
2024-05-09T15:42:00.666Z,42.16
2024-05-09T15:43:02.565Z,41.83
2024-05-09T15:44:04.372Z,42.01
2024-05-09T15:45:06.269Z,41.48
2024-05-09T15:46:07.877Z,41.32
2024-05-09T15:47:09.570Z,41.51
2024-05-09T15:48:11.735Z,41.01
2024-05-09T15:49:13.647Z,40.98
2024-05-09T15:50:20.603Z,40.92
2024-05-09T15:51:30.148Z,39.88
2024-05-09T15:52:31.789Z,39.64
2024-05-09T15:53:33.381Z,39.25
2024-05-09T15:54:34.943Z,39.34
2024-05-09T15:55:36.552Z,39.11
2024-05-09T15:56:39.082Z,42.10
2024-05-09T15:57:40.846Z,41.09
2024-05-09T15:58:42.913Z,40.42
2024-05-09T15:59:44.451Z,39.86
2024-05-09T16:00:47.917Z,39.76
2024-05-09T16:01:51.503Z,40.89
2024-05-09T16:02:53.134Z,41.43
2024-05-09T16:03:54.788Z,41.83
2024-05-09T16:04:56.465Z,41.53
2024-05-09T16:05:58.864Z,41.66
2024-05-09T16:07:00.467Z,41.34
2024-05-09T16:08:02.469Z,40.56
2024-05-09T16:09:04.563Z,41.11
2024-05-09T16:10:07.120Z,40.78
2024-05-09T16:11:08.961Z,40.79
2024-05-09T16:12:10.728Z,40.71
2024-05-09T16:13:12.644Z,40.66
2024-05-09T16:14:16.057Z,40.51
2024-05-09T16:15:17.593Z,40.60
2024-05-09T16:16:19.539Z,41.41
2024-05-09T16:17:21.238Z,42.87
2024-05-09T16:18:23.139Z,43.35
2024-05-09T16:19:24.967Z,44.05
2024-05-09T16:20:34.954Z,44.22
2024-05-09T16:21:41.436Z,44.22
2024-05-09T16:22:43.934Z,44.69
2024-05-09T16:23:45.461Z,44.32
2024-05-09T16:24:47.113Z,43.48
2024-05-09T16:25:48.852Z,43.04
2024-05-09T16:26:50.412Z,43.28
2024-05-09T16:27:52.097Z,43.20
2024-05-09T16:28:53.742Z,42.63
2024-05-09T16:29:58.065Z,42.53
2024-05-09T16:31:01.415Z,42.81
2024-05-09T16:32:03.140Z,43.43
2024-05-09T16:33:05.789Z,43.42
2024-05-09T16:34:08.017Z,43.36
2024-05-09T16:35:09.931Z,43.49
2024-05-09T16:36:11.518Z,43.33
2024-05-09T16:37:13.347Z,42.64
2024-05-09T16:38:15.151Z,42.45
2024-05-09T16:39:16.738Z,43.11
2024-05-09T16:40:25.671Z,43.17
2024-05-09T16:41:36.517Z,43.07
2024-05-09T16:42:38.088Z,44.38
2024-05-09T16:43:39.581Z,43.69
2024-05-09T16:44:41.122Z,43.83
2024-05-09T16:45:44.711Z,44.38
2024-05-09T16:46:46.529Z,44.37
2024-05-09T16:47:48.232Z,44.55
2024-05-09T16:48:50.744Z,44.43
2024-05-09T16:49:52.333Z,45.34
2024-05-09T16:50:53.819Z,45.94
2024-05-09T16:51:55.367Z,45.78
2024-05-09T16:52:57.073Z,46.27
2024-05-09T16:53:58.567Z,46.89
2024-05-09T16:55:00.137Z,47.52
2024-05-09T16:56:02.563Z,48.11
2024-05-09T16:57:04.334Z,47.67
2024-05-09T16:58:09.187Z,47.68
2024-05-09T16:59:10.972Z,47.66
2024-05-09T17:00:18.337Z,48.34
2024-05-09T17:01:28.604Z,48.48
2024-05-09T17:02:30.909Z,48.77
2024-05-09T17:03:32.763Z,48.82
2024-05-09T17:04:34.474Z,49.20
2024-05-09T17:05:36.733Z,48.97
2024-05-09T17:06:38.884Z,49.23
2024-05-09T17:07:41.169Z,49.62
2024-05-09T17:08:43.774Z,50.54
2024-05-09T17:09:45.471Z,49.77
2024-05-09T17:10:50.713Z,49.95
2024-05-09T17:11:52.453Z,49.99
2024-05-09T17:12:53.999Z,50.09
2024-05-09T17:13:55.491Z,49.21
2024-05-09T17:14:57.008Z,49.53
2024-05-09T17:15:58.686Z,49.40
2024-05-09T17:17:00.317Z,49.83
2024-05-09T17:26:32.354Z,50.93
2024-05-09T17:27:33.977Z,51.46
2024-05-09T17:35:07.684Z,53.16
2024-05-09T17:41:53.866Z,54.04
2024-05-09T17:48:06.458Z,54.38
2024-05-09T17:54:54.213Z,54.55
